sensor_id;sensor_type;location;lat;lon;timestamp;pressure;altitude;pressure_sealevel;temperature;humidity
20628;BME280;10473;42.734;24.258;2022-09-09T00:02:01;92241.34;;;18.26;61.65
20628;BME280;10473;42.734;24.258;2022-09-09T00:04:33;92231.88;;;18.18;61.66
20628;BME280;10473;42.734;24.258;2022-09-09T00:07:04;92236.72;;;18.00;62.66
20628;BME280;10473;42.734;24.258;2022-09-09T00:09:40;92244.66;;;18.07;62.33
20628;BME280;10473;42.734;24.258;2022-09-09T00:12:18;92232.44;;;18.06;62.57
20628;BME280;10473;42.734;24.258;2022-09-09T00:14:52;92238.84;;;18.12;62.44
20628;BME280;10473;42.734;24.258;2022-09-09T00:17:33;92236.69;;;18.03;62.22
20628;BME280;10473;42.734;24.258;2022-09-09T00:20:11;92232.22;;;17.90;62.41
20628;BME280;10473;42.734;24.258;2022-09-09T00:22:45;92231.03;;;17.94;62.50
20628;BME280;10473;42.734;24.258;2022-09-09T00:25:21;92233.38;;;17.92;62.46
20628;BME280;10473;42.734;24.258;2022-09-09T00:27:51;92225.72;;;17.91;62.79
20628;BME280;10473;42.734;24.258;2022-09-09T00:30:22;92228.41;;;17.91;62.69
20628;BME280;10473;42.734;24.258;2022-09-09T00:32:54;92228.81;;;17.89;62.99
20628;BME280;10473;42.734;24.258;2022-09-09T00:35:26;92231.09;;;17.87;62.82
20628;BME280;10473;42.734;24.258;2022-09-09T00:38:00;92230.72;;;17.89;63.17
20628;BME280;10473;42.734;24.258;2022-09-09T00:40:32;92225.72;;;17.91;63.15
20628;BME280;10473;42.734;24.258;2022-09-09T00:43:15;92219.59;;;17.90;62.70
20628;BME280;10473;42.734;24.258;2022-09-09T00:48:55;92221.28;;;17.77;63.52
20628;BME280;10473;42.734;24.258;2022-09-09T00:51:33;92210.16;;;17.79;63.74
20628;BME280;10473;42.734;24.258;2022-09-09T00:54:29;92215.50;;;17.79;63.93
20628;BME280;10473;42.734;24.258;2022-09-09T00:57:06;92208.00;;;17.67;63.90
20628;BME280;10473;42.734;24.258;2022-09-09T00:59:46;92210.25;;;17.72;64.14
20628;BME280;10473;42.734;24.258;2022-09-09T01:02:26;92206.94;;;17.61;64.49
20628;BME280;10473;42.734;24.258;2022-09-09T01:05:00;92205.81;;;17.58;64.54
20628;BME280;10473;42.734;24.258;2022-09-09T01:07:31;92204.31;;;17.54;64.79
20628;BME280;10473;42.734;24.258;2022-09-09T01:10:01;92207.53;;;17.42;64.89
20628;BME280;10473;42.734;24.258;2022-09-09T01:12:42;92198.66;;;17.48;65.44
20628;BME280;10473;42.734;24.258;2022-09-09T01:15:21;92192.88;;;17.53;64.70
20628;BME280;10473;42.734;24.258;2022-09-09T01:18:00;92189.53;;;17.42;64.90
20628;BME280;10473;42.734;24.258;2022-09-09T01:20:39;92188.69;;;17.49;64.91
20628;BME280;10473;42.734;24.258;2022-09-09T01:23:20;92183.38;;;17.45;64.98
20628;BME280;10473;42.734;24.258;2022-09-09T01:26:21;92189.56;;;17.39;65.40
20628;BME280;10473;42.734;24.258;2022-09-09T01:28:51;92183.41;;;17.42;64.90
20628;BME280;10473;42.734;24.258;2022-09-09T01:31:27;92181.53;;;17.39;64.54
20628;BME280;10473;42.734;24.258;2022-09-09T01:33:56;92180.91;;;17.21;65.21
20628;BME280;10473;42.734;24.258;2022-09-09T01:36:31;92188.53;;;17.26;65.65
20628;BME280;10473;42.734;24.258;2022-09-09T01:39:01;92188.59;;;17.19;65.68
20628;BME280;10473;42.734;24.258;2022-09-09T01:41:31;92190.94;;;17.17;66.08
20628;BME280;10473;42.734;24.258;2022-09-09T01:44:11;92190.13;;;17.20;65.78
20628;BME280;10473;42.734;24.258;2022-09-09T01:46:42;92174.19;;;17.09;65.81
20628;BME280;10473;42.734;24.258;2022-09-09T01:49:17;92182.41;;;17.25;65.62
20628;BME280;10473;42.734;24.258;2022-09-09T01:51:47;92176.44;;;17.11;65.89
20628;BME280;10473;42.734;24.258;2022-09-09T01:54:17;92185.63;;;17.10;65.69
20628;BME280;10473;42.734;24.258;2022-09-09T01:56:58;92178.69;;;17.16;65.60
20628;BME280;10473;42.734;24.258;2022-09-09T01:59:49;92168.66;;;17.23;65.39
20628;BME280;10473;42.734;24.258;2022-09-09T02:02:24;92174.81;;;17.20;65.47
20628;BME280;10473;42.734;24.258;2022-09-09T02:05:15;92185.50;;;17.24;64.87
20628;BME280;10473;42.734;24.258;2022-09-09T02:07:47;92183.22;;;17.22;64.84
20628;BME280;10473;42.734;24.258;2022-09-09T02:10:34;92176.38;;;17.18;65.54
20628;BME280;10473;42.734;24.258;2022-09-09T02:13:17;92179.50;;;17.13;65.36
20628;BME280;10473;42.734;24.258;2022-09-09T02:15:51;92175.69;;;17.10;65.64
20628;BME280;10473;42.734;24.258;2022-09-09T02:18:25;92187.91;;;17.11;66.18
20628;BME280;10473;42.734;24.258;2022-09-09T02:20:55;92192.09;;;17.12;65.28
20628;BME280;10473;42.734;24.258;2022-09-09T02:23:24;92182.53;;;17.15;65.20
20628;BME280;10473;42.734;24.258;2022-09-09T02:25:57;92194.00;;;17.15;65.34
20628;BME280;10473;42.734;24.258;2022-09-09T02:28:29;92188.66;;;17.15;65.86
20628;BME280;10473;42.734;24.258;2022-09-09T02:31:00;92183.25;;;17.19;65.68
20628;BME280;10473;42.734;24.258;2022-09-09T02:33:38;92184.91;;;17.06;65.69
20628;BME280;10473;42.734;24.258;2022-09-09T02:36:08;92177.25;;;17.08;66.04
20628;BME280;10473;42.734;24.258;2022-09-09T02:38:44;92186.44;;;17.07;66.09
20628;BME280;10473;42.734;24.258;2022-09-09T02:41:17;92194.13;;;17.01;66.14
20628;BME280;10473;42.734;24.258;2022-09-09T02:43:50;92198.13;;;16.83;66.81
20628;BME280;10473;42.734;24.258;2022-09-09T02:46:27;92192.78;;;16.83;67.19
20628;BME280;10473;42.734;24.258;2022-09-09T02:49:00;92186.63;;;16.89;67.12
20628;BME280;10473;42.734;24.258;2022-09-09T02:51:40;92209.53;;;16.90;66.80
20628;BME280;10473;42.734;24.258;2022-09-09T02:54:17;92206.09;;;16.90;67.41
20628;BME280;10473;42.734;24.258;2022-09-09T02:56:51;92211.88;;;16.85;66.46
20628;BME280;10473;42.734;24.258;2022-09-09T02:59:27;92211.91;;;16.81;66.97
20628;BME280;10473;42.734;24.258;2022-09-09T03:01:56;92208.97;;;16.69;66.92
20628;BME280;10473;42.734;24.258;2022-09-09T03:04:24;92211.31;;;16.60;67.83
20628;BME280;10473;42.734;24.258;2022-09-09T03:06:52;92195.38;;;16.46;67.79
20628;BME280;10473;42.734;24.258;2022-09-09T03:09:21;92203.78;;;16.48;68.09
20628;BME280;10473;42.734;24.258;2022-09-09T03:11:49;92190.75;;;16.50;68.23
20628;BME280;10473;42.734;24.258;2022-09-09T03:14:19;92193.09;;;16.44;67.98
20628;BME280;10473;42.734;24.258;2022-09-09T03:16:52;92203.72;;;16.55;68.17
20628;BME280;10473;42.734;24.258;2022-09-09T03:19:21;92207.50;;;16.57;67.85
20628;BME280;10473;42.734;24.258;2022-09-09T03:21:50;92205.22;;;16.56;68.00
20628;BME280;10473;42.734;24.258;2022-09-09T03:24:18;92208.72;;;16.53;68.22
20628;BME280;10473;42.734;24.258;2022-09-09T03:26:46;92210.25;;;16.47;68.29
20628;BME280;10473;42.734;24.258;2022-09-09T03:29:17;92197.09;;;16.12;69.63
20628;BME280;10473;42.734;24.258;2022-09-09T03:31:45;92203.28;;;16.05;69.56
20628;BME280;10473;42.734;24.258;2022-09-09T03:34:15;92193.28;;;16.13;69.39
20628;BME280;10473;42.734;24.258;2022-09-09T03:36:43;92196.66;;;16.24;69.28
20628;BME280;10473;42.734;24.258;2022-09-09T03:39:11;92197.41;;;16.28;69.16
20628;BME280;10473;42.734;24.258;2022-09-09T03:41:41;92188.59;;;16.27;69.04
20628;BME280;10473;42.734;24.258;2022-09-09T03:44:14;92185.56;;;16.22;69.35
20628;BME280;10473;42.734;24.258;2022-09-09T03:46:43;92192.84;;;16.21;69.55
20628;BME280;10473;42.734;24.258;2022-09-09T03:49:10;92187.94;;;16.13;69.69
20628;BME280;10473;42.734;24.258;2022-09-09T03:51:40;92175.72;;;16.12;69.44
20628;BME280;10473;42.734;24.258;2022-09-09T03:54:09;92174.97;;;16.11;69.70
20628;BME280;10473;42.734;24.258;2022-09-09T03:56:37;92180.63;;;16.17;69.58
20628;BME280;10473;42.734;24.258;2022-09-09T03:59:09;92177.19;;;16.20;69.70
20628;BME280;10473;42.734;24.258;2022-09-09T04:01:36;92178.69;;;16.24;69.46
20628;BME280;10473;42.734;24.258;2022-09-09T04:04:04;92180.19;;;16.29;69.17
20628;BME280;10473;42.734;24.258;2022-09-09T04:06:32;92184.69;;;16.39;68.97
20628;BME280;10473;42.734;24.258;2022-09-09T04:09:01;92183.19;;;16.38;68.76
20628;BME280;10473;42.734;24.258;2022-09-09T04:11:31;92180.59;;;16.27;69.36
20628;BME280;10473;42.734;24.258;2022-09-09T04:14:00;92187.09;;;16.26;69.40
20628;BME280;10473;42.734;24.258;2022-09-09T04:16:29;92193.19;;;16.27;69.50
20628;BME280;10473;42.734;24.258;2022-09-09T04:18:57;92195.81;;;16.34;69.52
20628;BME280;10473;42.734;24.258;2022-09-09T04:21:26;92183.19;;;16.38;68.81
20628;BME280;10473;42.734;24.258;2022-09-09T04:23:54;92174.03;;;16.35;69.16
20628;BME280;10473;42.734;24.258;2022-09-09T04:26:23;92191.53;;;16.50;68.90
20628;BME280;10473;42.734;24.258;2022-09-09T04:28:51;92196.47;;;16.52;68.88
20628;BME280;10473;42.734;24.258;2022-09-09T04:31:21;92190.75;;;16.50;69.36
20628;BME280;10473;42.734;24.258;2022-09-09T04:33:52;92200.56;;;16.67;68.97
20628;BME280;10473;42.734;24.258;2022-09-09T04:36:20;92200.38;;;16.88;68.93
20628;BME280;10473;42.734;24.258;2022-09-09T04:38:50;92197.06;;;17.14;67.97
20628;BME280;10473;42.734;24.258;2022-09-09T04:41:19;92195.34;;;17.34;67.86
20628;BME280;10473;42.734;24.258;2022-09-09T04:43:51;92200.03;;;17.63;66.91
20628;BME280;10473;42.734;24.258;2022-09-09T04:46:21;92192.44;;;17.88;66.98
20628;BME280;10473;42.734;24.258;2022-09-09T04:48:49;92200.69;;;18.01;64.29
20628;BME280;10473;42.734;24.258;2022-09-09T04:51:18;92198.84;;;18.24;64.10
20628;BME280;10473;42.734;24.258;2022-09-09T04:53:48;92206.00;;;18.61;64.30
20628;BME280;10473;42.734;24.258;2022-09-09T04:56:18;92211.97;;;18.95;64.31
20628;BME280;10473;42.734;24.258;2022-09-09T04:58:56;92206.72;;;18.88;61.69
20628;BME280;10473;42.734;24.258;2022-09-09T05:01:33;92215.53;;;19.11;61.96
20628;BME280;10473;42.734;24.258;2022-09-09T05:04:03;92212.13;;;19.53;62.53
20628;BME280;10473;42.734;24.258;2022-09-09T05:06:33;92211.22;;;19.79;62.21
20628;BME280;10473;42.734;24.258;2022-09-09T05:09:03;92209.28;;;20.19;61.74
20628;BME280;10473;42.734;24.258;2022-09-09T05:11:32;92196.06;;;20.44;60.40
20628;BME280;10473;42.734;24.258;2022-09-09T05:14:21;92216.41;;;20.96;58.39
20628;BME280;10473;42.734;24.258;2022-09-09T05:16:50;92210.00;;;21.22;56.05
20628;BME280;10473;42.734;24.258;2022-09-09T05:19:18;92210.59;;;21.30;56.76
20628;BME280;10473;42.734;24.258;2022-09-09T05:21:49;92202.84;;;21.60;55.72
20628;BME280;10473;42.734;24.258;2022-09-09T05:24:21;92202.94;;;21.57;55.75
20628;BME280;10473;42.734;24.258;2022-09-09T05:26:52;92195.25;;;22.00;56.62
20628;BME280;10473;42.734;24.258;2022-09-09T05:29:21;92195.06;;;22.32;58.49
20628;BME280;10473;42.734;24.258;2022-09-09T05:31:50;92193.72;;;22.65;52.02
20628;BME280;10473;42.734;24.258;2022-09-09T05:34:20;92182.66;;;22.97;55.28
20628;BME280;10473;42.734;24.258;2022-09-09T05:36:50;92179.28;;;23.30;53.97
20628;BME280;10473;42.734;24.258;2022-09-09T05:39:20;92167.38;;;23.62;54.57
20628;BME280;10473;42.734;24.258;2022-09-09T05:41:48;92168.47;;;23.86;52.99
20628;BME280;10473;42.734;24.258;2022-09-09T05:44:17;92174.44;;;24.24;52.47
20628;BME280;10473;42.734;24.258;2022-09-09T05:46:47;92170.44;;;24.07;48.83
20628;BME280;10473;42.734;24.258;2022-09-09T05:49:16;92180.47;;;23.85;50.60
20628;BME280;10473;42.734;24.258;2022-09-09T05:51:44;92173.06;;;23.98;54.44
20628;BME280;10473;42.734;24.258;2022-09-09T05:54:14;92179.53;;;24.43;51.98
20628;BME280;10473;42.734;24.258;2022-09-09T05:56:45;92186.53;;;24.32;50.46
20628;BME280;10473;42.734;24.258;2022-09-09T05:59:13;92191.84;;;24.44;53.16
20628;BME280;10473;42.734;24.258;2022-09-09T06:01:41;92190.25;;;24.77;50.58
20628;BME280;10473;42.734;24.258;2022-09-09T06:04:18;92188.38;;;25.05;49.87
20628;BME280;10473;42.734;24.258;2022-09-09T06:06:51;92180.13;;;25.17;50.41
20628;BME280;10473;42.734;24.258;2022-09-09T06:09:21;92187.56;;;25.35;50.00
20628;BME280;10473;42.734;24.258;2022-09-09T06:11:49;92187.25;;;25.33;46.84
20628;BME280;10473;42.734;24.258;2022-09-09T06:14:19;92178.72;;;25.13;48.00
20628;BME280;10473;42.734;24.258;2022-09-09T06:16:49;92182.16;;;25.44;48.45
20628;BME280;10473;42.734;24.258;2022-09-09T06:19:28;92185.47;;;25.39;50.07
20628;BME280;10473;42.734;24.258;2022-09-09T06:21:58;92187.31;;;25.69;45.86
20628;BME280;10473;42.734;24.258;2022-09-09T06:24:28;92186.88;;;25.13;46.52
20628;BME280;10473;42.734;24.258;2022-09-09T06:26:57;92179.91;;;24.33;47.67
20628;BME280;10473;42.734;24.258;2022-09-09T06:29:28;92185.97;;;25.07;48.38
20628;BME280;10473;42.734;24.258;2022-09-09T06:31:56;92188.50;;;25.50;51.03
20628;BME280;10473;42.734;24.258;2022-09-09T06:34:28;92188.38;;;24.44;49.36
20628;BME280;10473;42.734;24.258;2022-09-09T06:36:58;92197.44;;;25.20;49.11
20628;BME280;10473;42.734;24.258;2022-09-09T06:39:32;92183.38;;;24.33;48.67
20628;BME280;10473;42.734;24.258;2022-09-09T06:42:00;92192.44;;;23.75;50.30
20628;BME280;10473;42.734;24.258;2022-09-09T06:44:51;92194.88;;;24.46;54.46
20628;BME280;10473;42.734;24.258;2022-09-09T06:47:35;92193.41;;;24.02;51.49
20628;BME280;10473;42.734;24.258;2022-09-09T06:50:06;92179.78;;;24.67;52.48
20628;BME280;10473;42.734;24.258;2022-09-09T06:52:35;92177.53;;;25.05;49.48
20628;BME280;10473;42.734;24.258;2022-09-09T06:55:04;92189.31;;;24.19;50.25
20628;BME280;10473;42.734;24.258;2022-09-09T06:57:32;92190.50;;;25.10;51.49
20628;BME280;10473;42.734;24.258;2022-09-09T07:00:02;92190.91;;;25.66;50.14
20628;BME280;10473;42.734;24.258;2022-09-09T07:02:30;92195.13;;;26.12;50.12
20628;BME280;10473;42.734;24.258;2022-09-09T07:04:58;92204.03;;;26.40;48.47
20628;BME280;10473;42.734;24.258;2022-09-09T07:07:28;92199.31;;;26.67;44.41
20628;BME280;10473;42.734;24.258;2022-09-09T07:09:56;92195.72;;;25.53;45.56
20628;BME280;10473;42.734;24.258;2022-09-09T07:12:24;92185.03;;;25.86;46.80
20628;BME280;10473;42.734;24.258;2022-09-09T07:14:57;92199.06;;;26.29;46.58
20628;BME280;10473;42.734;24.258;2022-09-09T07:17:25;92203.25;;;26.57;45.61
20628;BME280;10473;42.734;24.258;2022-09-09T07:19:53;92212.56;;;26.74;47.82
20628;BME280;10473;42.734;24.258;2022-09-09T07:22:21;92200.59;;;26.90;44.78
20628;BME280;10473;42.734;24.258;2022-09-09T07:24:50;92201.59;;;27.01;44.08
20628;BME280;10473;42.734;24.258;2022-09-09T07:27:18;92197.28;;;27.18;47.62
20628;BME280;10473;42.734;24.258;2022-09-09T07:29:48;92205.44;;;27.51;42.97
20628;BME280;10473;42.734;24.258;2022-09-09T07:32:16;92214.31;;;27.60;44.07
20628;BME280;10473;42.734;24.258;2022-09-09T07:34:46;92204.06;;;26.04;45.93
20628;BME280;10473;42.734;24.258;2022-09-09T07:37:13;92211.13;;;26.97;46.95
20628;BME280;10473;42.734;24.258;2022-09-09T07:39:44;92218.63;;;26.69;45.11
20628;BME280;10473;42.734;24.258;2022-09-09T07:42:14;92216.06;;;26.48;48.55
20628;BME280;10473;42.734;24.258;2022-09-09T07:44:42;92203.78;;;27.21;44.57
20628;BME280;10473;42.734;24.258;2022-09-09T07:47:15;92217.22;;;27.15;43.32
20628;BME280;10473;42.734;24.258;2022-09-09T07:49:46;92223.53;;;27.63;46.45
20628;BME280;10473;42.734;24.258;2022-09-09T07:52:20;92209.13;;;27.06;47.96
20628;BME280;10473;42.734;24.258;2022-09-09T07:54:52;92212.16;;;26.99;45.65
20628;BME280;10473;42.734;24.258;2022-09-09T07:57:21;92222.50;;;27.84;46.23
20628;BME280;10473;42.734;24.258;2022-09-09T07:59:51;92215.56;;;27.97;43.26
20628;BME280;10473;42.734;24.258;2022-09-09T08:02:19;92207.41;;;28.12;42.24
20628;BME280;10473;42.734;24.258;2022-09-09T08:04:47;92201.72;;;26.65;44.94
20628;BME280;10473;42.734;24.258;2022-09-09T08:07:17;92199.28;;;27.65;43.85
20628;BME280;10473;42.734;24.258;2022-09-09T08:09:52;92202.09;;;28.17;45.20
20628;BME280;10473;42.734;24.258;2022-09-09T08:12:31;92198.44;;;27.82;44.76
20628;BME280;10473;42.734;24.258;2022-09-09T08:14:59;92200.25;;;28.52;44.58
20628;BME280;10473;42.734;24.258;2022-09-09T08:17:30;92197.81;;;28.98;43.67
20628;BME280;10473;42.734;24.258;2022-09-09T08:20:04;92197.72;;;29.41;44.01
20628;BME280;10473;42.734;24.258;2022-09-09T08:22:32;92196.69;;;29.73;40.94
20628;BME280;10473;42.734;24.258;2022-09-09T08:25:00;92195.47;;;30.14;38.47
20628;BME280;10473;42.734;24.258;2022-09-09T08:27:28;92190.34;;;29.82;39.72
20628;BME280;10473;42.734;24.258;2022-09-09T08:29:57;92187.66;;;30.07;38.97
20628;BME280;10473;42.734;24.258;2022-09-09T08:32:25;92199.97;;;30.17;40.65
20628;BME280;10473;42.734;24.258;2022-09-09T08:34:53;92196.41;;;30.82;38.86
20628;BME280;10473;42.734;24.258;2022-09-09T08:37:23;92194.13;;;31.06;39.29
20628;BME280;10473;42.734;24.258;2022-09-09T08:39:52;92190.13;;;31.07;39.24
20628;BME280;10473;42.734;24.258;2022-09-09T08:42:30;92186.69;;;29.70;40.79
20628;BME280;10473;42.734;24.258;2022-09-09T08:45:12;92187.72;;;29.18;40.62
20628;BME280;10473;42.734;24.258;2022-09-09T08:47:49;92188.38;;;29.48;41.42
20628;BME280;10473;42.734;24.258;2022-09-09T08:50:25;92190.09;;;30.05;44.01
20628;BME280;10473;42.734;24.258;2022-09-09T08:53:02;92175.00;;;29.50;39.63
20628;BME280;10473;42.734;24.258;2022-09-09T08:55:39;92189.09;;;29.63;41.03
20628;BME280;10473;42.734;24.258;2022-09-09T08:58:13;92190.31;;;29.62;40.11
20628;BME280;10473;42.734;24.258;2022-09-09T09:01:03;92187.66;;;30.07;40.17
20628;BME280;10473;42.734;24.258;2022-09-09T09:03:48;92179.47;;;28.69;41.61
20628;BME280;10473;42.734;24.258;2022-09-09T09:06:30;92183.66;;;29.48;44.04
20628;BME280;10473;42.734;24.258;2022-09-09T09:09:10;92184.03;;;29.96;42.62
20628;BME280;10473;42.734;24.258;2022-09-09T09:11:44;92188.03;;;30.15;40.92
20628;BME280;10473;42.734;24.258;2022-09-09T09:14:18;92187.41;;;29.31;42.15
20628;BME280;10473;42.734;24.258;2022-09-09T09:16:53;92192.03;;;30.19;46.92
20628;BME280;10473;42.734;24.258;2022-09-09T09:19:22;92185.97;;;29.70;43.16
20628;BME280;10473;42.734;24.258;2022-09-09T09:21:58;92187.38;;;29.85;39.90
20628;BME280;10473;42.734;24.258;2022-09-09T09:24:39;92187.31;;;30.45;41.87
20628;BME280;10473;42.734;24.258;2022-09-09T09:27:13;92185.00;;;30.89;40.45
20628;BME280;10473;42.734;24.258;2022-09-09T09:29:46;92184.28;;;30.89;40.17
20628;BME280;10473;42.734;24.258;2022-09-09T09:32:19;92176.84;;;30.95;39.53
20628;BME280;10473;42.734;24.258;2022-09-09T09:34:51;92169.50;;;30.75;38.68
20628;BME280;10473;42.734;24.258;2022-09-09T09:37:26;92165.69;;;29.07;41.82
20628;BME280;10473;42.734;24.258;2022-09-09T09:40:07;92160.53;;;29.09;41.86
20628;BME280;10473;42.734;24.258;2022-09-09T09:42:36;92161.13;;;28.84;41.73
20628;BME280;10473;42.734;24.258;2022-09-09T09:45:08;92166.72;;;28.08;43.80
20628;BME280;10473;42.734;24.258;2022-09-09T09:47:44;92158.06;;;27.01;45.47
20628;BME280;10473;42.734;24.258;2022-09-09T09:50:19;92153.66;;;27.04;46.35
20628;BME280;10473;42.734;24.258;2022-09-09T09:52:54;92148.63;;;27.11;44.77
20628;BME280;10473;42.734;24.258;2022-09-09T09:55:24;92143.13;;;27.67;44.76
20628;BME280;10473;42.734;24.258;2022-09-09T09:57:53;92146.53;;;28.15;48.18
20628;BME280;10473;42.734;24.258;2022-09-09T10:00:22;92154.16;;;27.73;43.91
20628;BME280;10473;42.734;24.258;2022-09-09T10:03:14;92150.56;;;27.43;44.96
20628;BME280;10473;42.734;24.258;2022-09-09T10:05:47;92152.75;;;27.30;45.14
20628;BME280;10473;42.734;24.258;2022-09-09T10:08:17;92159.94;;;27.66;43.03
20628;BME280;10473;42.734;24.258;2022-09-09T10:13:42;92147.66;;;28.23;44.29
20628;BME280;10473;42.734;24.258;2022-09-09T10:16:28;92149.50;;;28.40;45.77
20628;BME280;10473;42.734;24.258;2022-09-09T10:19:04;92148.50;;;28.14;43.57
20628;BME280;10473;42.734;24.258;2022-09-09T10:21:59;92146.66;;;28.49;45.12
20628;BME280;10473;42.734;24.258;2022-09-09T10:24:48;92134.78;;;28.23;43.44
20628;BME280;10473;42.734;24.258;2022-09-09T10:27:21;92136.75;;;27.70;43.62
20628;BME280;10473;42.734;24.258;2022-09-09T10:30:10;92140.66;;;27.55;45.00
20628;BME280;10473;42.734;24.258;2022-09-09T10:32:48;92141.38;;;28.17;42.68
20628;BME280;10473;42.734;24.258;2022-09-09T10:35:27;92146.44;;;28.38;43.45
20628;BME280;10473;42.734;24.258;2022-09-09T10:38:15;92143.63;;;28.76;42.64
20628;BME280;10473;42.734;24.258;2022-09-09T10:40:59;92149.63;;;29.09;42.17
20628;BME280;10473;42.734;24.258;2022-09-09T10:43:39;92142.38;;;29.26;41.41
20628;BME280;10473;42.734;24.258;2022-09-09T10:46:15;92144.84;;;29.24;42.26
20628;BME280;10473;42.734;24.258;2022-09-09T10:49:02;92140.22;;;29.50;43.49
20628;BME280;10473;42.734;24.258;2022-09-09T10:51:40;92142.38;;;29.06;42.27
20628;BME280;10473;42.734;24.258;2022-09-09T10:54:24;92127.53;;;29.47;40.16
20628;BME280;10473;42.734;24.258;2022-09-09T10:57:00;92138.03;;;29.34;40.17
20628;BME280;10473;42.734;24.258;2022-09-09T10:59:30;92134.66;;;29.25;40.73
20628;BME280;10473;42.734;24.258;2022-09-09T11:02:03;92134.88;;;29.41;40.25
20628;BME280;10473;42.734;24.258;2022-09-09T11:04:40;92138.41;;;29.62;40.61
20628;BME280;10473;42.734;24.258;2022-09-09T11:07:18;92121.31;;;29.27;40.46
20628;BME280;10473;42.734;24.258;2022-09-09T11:09:54;92137.22;;;29.48;40.74
20628;BME280;10473;42.734;24.258;2022-09-09T11:12:27;92145.09;;;29.06;41.28
20628;BME280;10473;42.734;24.258;2022-09-09T11:15:01;92128.94;;;28.88;41.00
20628;BME280;10473;42.734;24.258;2022-09-09T11:17:36;92138.78;;;29.35;41.95
20628;BME280;10473;42.734;24.258;2022-09-09T11:20:11;92131.09;;;29.33;43.86
20628;BME280;10473;42.734;24.258;2022-09-09T11:22:45;92129.41;;;28.87;42.96
20628;BME280;10473;42.734;24.258;2022-09-09T11:25:16;92125.34;;;28.82;42.53
20628;BME280;10473;42.734;24.258;2022-09-09T11:27:58;92114.19;;;28.66;44.07
20628;BME280;10473;42.734;24.258;2022-09-09T11:30:45;92116.75;;;28.69;43.49
20628;BME280;10473;42.734;24.258;2022-09-09T11:33:46;92123.78;;;28.61;44.12
20628;BME280;10473;42.734;24.258;2022-09-09T11:36:32;92112.75;;;28.99;44.97
20628;BME280;10473;42.734;24.258;2022-09-09T11:39:15;92118.69;;;29.18;43.09
20628;BME280;10473;42.734;24.258;2022-09-09T11:41:46;92113.59;;;29.45;42.56
20628;BME280;10473;42.734;24.258;2022-09-09T11:44:18;92111.56;;;29.60;41.65
20628;BME280;10473;42.734;24.258;2022-09-09T11:46:50;92120.19;;;29.73;41.93
20628;BME280;10473;42.734;24.258;2022-09-09T11:49:27;92121.69;;;29.74;41.31
20628;BME280;10473;42.734;24.258;2022-09-09T11:51:55;92117.84;;;29.66;41.17
20628;BME280;10473;42.734;24.258;2022-09-09T11:54:30;92109.25;;;29.73;40.06
20628;BME280;10473;42.734;24.258;2022-09-09T11:56:58;92106.84;;;29.81;42.49
20628;BME280;10473;42.734;24.258;2022-09-09T11:59:33;92105.41;;;29.85;40.96
20628;BME280;10473;42.734;24.258;2022-09-09T12:02:02;92107.44;;;29.90;41.15
20628;BME280;10473;42.734;24.258;2022-09-09T12:04:39;92107.75;;;29.98;44.37
20628;BME280;10473;42.734;24.258;2022-09-09T12:07:25;92100.25;;;29.93;42.67
20628;BME280;10473;42.734;24.258;2022-09-09T12:09:58;92087.94;;;30.03;40.74
20628;BME280;10473;42.734;24.258;2022-09-09T12:12:29;92084.59;;;30.13;41.40
20628;BME280;10473;42.734;24.258;2022-09-09T12:15:00;92083.94;;;30.24;40.17
20628;BME280;10473;42.734;24.258;2022-09-09T12:17:29;92081.63;;;29.51;40.44
20628;BME280;10473;42.734;24.258;2022-09-09T12:20:08;92085.91;;;29.72;40.56
20628;BME280;10473;42.734;24.258;2022-09-09T12:22:46;92079.75;;;29.77;40.56
20628;BME280;10473;42.734;24.258;2022-09-09T12:25:26;92084.44;;;29.77;40.62
20628;BME280;10473;42.734;24.258;2022-09-09T12:28:01;92077.03;;;29.57;41.41
20628;BME280;10473;42.734;24.258;2022-09-09T12:30:36;92079.59;;;29.46;42.31
20628;BME280;10473;42.734;24.258;2022-09-09T12:33:11;92081.94;;;29.33;43.23
20628;BME280;10473;42.734;24.258;2022-09-09T12:35:41;92075.63;;;29.27;43.24
20628;BME280;10473;42.734;24.258;2022-09-09T12:38:14;92067.25;;;29.11;43.79
20628;BME280;10473;42.734;24.258;2022-09-09T12:40:54;92073.03;;;28.98;43.95
20628;BME280;10473;42.734;24.258;2022-09-09T12:43:24;92068.34;;;28.84;44.96
20628;BME280;10473;42.734;24.258;2022-09-09T12:45:55;92066.97;;;28.60;44.80
20628;BME280;10473;42.734;24.258;2022-09-09T12:48:29;92065.78;;;28.46;45.74
20628;BME280;10473;42.734;24.258;2022-09-09T12:50:59;92077.44;;;28.32;46.77
20628;BME280;10473;42.734;24.258;2022-09-09T12:53:29;92068.63;;;28.08;46.21
20628;BME280;10473;42.734;24.258;2022-09-09T12:56:00;92072.53;;;27.78;46.99
20628;BME280;10473;42.734;24.258;2022-09-09T12:58:30;92057.94;;;27.67;47.48
20628;BME280;10473;42.734;24.258;2022-09-09T13:01:00;92068.53;;;27.50;48.04
20628;BME280;10473;42.734;24.258;2022-09-09T13:03:32;92060.63;;;27.14;48.56
20628;BME280;10473;42.734;24.258;2022-09-09T13:06:11;92075.31;;;27.08;48.97
20628;BME280;10473;42.734;24.258;2022-09-09T13:08:40;92065.63;;;26.92;49.01
20628;BME280;10473;42.734;24.258;2022-09-09T13:11:13;92060.22;;;26.83;49.89
20628;BME280;10473;42.734;24.258;2022-09-09T13:13:42;92060.41;;;26.80;50.14
20628;BME280;10473;42.734;24.258;2022-09-09T13:16:20;92057.41;;;26.69;50.23
20628;BME280;10473;42.734;24.258;2022-09-09T13:18:49;92052.34;;;26.62;50.12
20628;BME280;10473;42.734;24.258;2022-09-09T13:21:17;92059.19;;;26.48;50.70
20628;BME280;10473;42.734;24.258;2022-09-09T13:23:49;92046.22;;;26.43;51.61
20628;BME280;10473;42.734;24.258;2022-09-09T13:26:25;92040.97;;;26.31;52.00
20628;BME280;10473;42.734;24.258;2022-09-09T13:28:53;92049.59;;;26.29;51.29